createdAt,value
2023-02-13T00:00:46.154Z,115.18
2023-02-13T00:03:14.347Z,117.97
2023-02-13T00:05:41.535Z,118.45
2023-02-13T00:08:08.847Z,115.43
2023-02-13T00:10:36.864Z,118.97
2023-02-13T00:13:04.118Z,109.38
2023-02-13T00:15:31.733Z,104.95
2023-02-13T00:17:59.049Z,103.53
2023-02-13T00:20:26.293Z,111.50
2023-02-13T00:22:53.459Z,103.70
2023-02-13T00:25:20.623Z,106.93
2023-02-13T00:27:47.725Z,105.07
2023-02-13T00:30:16.099Z,102.47
2023-02-13T00:32:43.309Z,100.32
2023-02-13T00:35:10.626Z,107.35
2023-02-13T00:37:37.939Z,97.82
2023-02-13T00:40:05.836Z,104.55
2023-02-13T00:42:32.927Z,113.70
2023-02-13T00:45:00.152Z,102.80
2023-02-13T00:47:27.289Z,108.57
2023-02-13T00:49:55.327Z,97.45
2023-02-13T00:52:23.344Z,100.10
2023-02-13T00:54:50.775Z,98.97
2023-02-13T00:57:17.965Z,108.20
2023-02-13T00:59:45.125Z,98.38
2023-02-13T01:02:12.416Z,98.55
2023-02-13T01:04:40.104Z,100.20
2023-02-13T01:07:07.275Z,95.97
2023-02-13T01:09:35.305Z,97.63
2023-02-13T01:12:02.614Z,100.30
2023-02-13T01:14:29.885Z,102.22
2023-02-13T01:16:57.115Z,99.63
2023-02-13T01:19:24.220Z,94.45
2023-02-13T01:21:52.724Z,89.38
2023-02-13T01:24:19.958Z,109.90
2023-02-13T01:26:47.156Z,107.22
2023-02-13T01:29:14.622Z,109.70
2023-02-13T01:31:41.813Z,104.68
2023-02-13T01:34:09.099Z,112.07
2023-02-13T01:36:36.294Z,118.25
2023-02-13T01:39:03.558Z,123.28
2023-02-13T01:41:31.540Z,133.90
2023-02-13T01:44:01.520Z,125.18
2023-02-13T01:46:29.942Z,127.10
2023-02-13T01:49:09.554Z,117.47
2023-02-13T01:51:38.012Z,121.97
2023-02-13T01:54:14.768Z,118.53
2023-02-13T01:56:57.046Z,115.30
2023-02-13T01:59:40.425Z,125.95
2023-02-13T02:02:07.802Z,122.03
2023-02-13T02:04:39.070Z,105.72
2023-02-13T02:07:22.187Z,119.95
2023-02-13T02:09:53.610Z,112.15
2023-02-13T02:12:50.048Z,116.00
2023-02-13T02:15:19.245Z,119.03
2023-02-13T02:17:47.602Z,100.40
2023-02-13T02:20:42.866Z,105.93
2023-02-13T02:23:34.806Z,96.32
2023-02-13T02:26:32.277Z,102.10
2023-02-13T02:29:52.574Z,123.40
2023-02-13T02:35:21.101Z,123.45
2023-02-13T02:38:17.792Z,121.80
2023-02-13T02:41:34.413Z,120.65
2023-02-13T02:44:44.778Z,111.22
2023-02-13T02:48:01.091Z,106.23
2023-02-13T02:51:06.307Z,105.07
2023-02-13T02:53:47.863Z,113.10
2023-02-13T02:56:26.328Z,117.68
2023-02-13T02:59:31.302Z,116.78
2023-02-13T03:02:20.529Z,121.22
2023-02-13T03:07:40.968Z,101.57
2023-02-13T03:10:32.046Z,101.13
2023-02-13T03:13:23.277Z,130.48
2023-02-13T03:16:14.554Z,92.40
2023-02-13T03:19:09.878Z,78.28
2023-02-13T03:22:16.626Z,72.32
2023-02-13T03:25:12.795Z,72.25
2023-02-13T03:28:33.905Z,88.15
2023-02-13T03:31:45.321Z,76.70
2023-02-13T03:34:21.874Z,75.05
2023-02-13T03:37:11.944Z,72.78
2023-02-13T03:40:20.734Z,71.97
2023-02-13T03:43:11.894Z,70.22
2023-02-13T03:45:53.752Z,70.20
2023-02-13T03:48:50.915Z,64.18
2023-02-13T03:51:48.821Z,69.35
2023-02-13T03:54:18.362Z,68.60
2023-02-13T03:57:07.891Z,74.82
2023-02-13T03:59:37.067Z,67.03
2023-02-13T04:02:20.153Z,70.18
2023-02-13T04:05:03.519Z,76.07
2023-02-13T04:07:31.499Z,72.30
2023-02-13T04:10:06.380Z,59.58
2023-02-13T04:12:52.032Z,51.17
2023-02-13T04:15:54.441Z,49.55
2023-02-13T04:18:27.596Z,52.47
2023-02-13T04:20:54.799Z,53.95
2023-02-13T04:23:22.055Z,49.28
2023-02-13T04:25:54.236Z,46.78
2023-02-13T04:28:21.663Z,47.20
2023-02-13T04:30:50.129Z,44.83
2023-02-13T04:33:17.427Z,45.70
2023-02-13T04:35:44.929Z,47.35
2023-02-13T04:38:12.117Z,51.85
2023-02-13T04:40:39.405Z,62.83
2023-02-13T04:43:06.845Z,52.80
2023-02-13T04:45:34.059Z,47.33
2023-02-13T04:48:01.278Z,45.72
2023-02-13T04:50:28.532Z,58.30
2023-02-13T04:52:57.746Z,54.30
2023-02-13T04:55:26.925Z,59.90
2023-02-13T04:57:55.402Z,56.42
2023-02-13T05:00:25.968Z,61.20
2023-02-13T05:02:53.346Z,64.32
2023-02-13T05:05:20.897Z,58.00
2023-02-13T05:07:48.216Z,58.25
2023-02-13T05:10:15.411Z,58.83
2023-02-13T05:12:42.610Z,63.78
2023-02-13T05:15:10.315Z,63.63
2023-02-13T05:17:37.533Z,61.78
2023-02-13T05:20:06.295Z,58.97
2023-02-13T05:22:52.242Z,63.70
2023-02-13T05:25:19.595Z,63.13
2023-02-13T05:27:47.023Z,58.58
2023-02-13T05:30:14.879Z,57.17
2023-02-13T05:32:42.717Z,64.75
2023-02-13T05:35:09.889Z,71.20
2023-02-13T05:37:37.230Z,62.80
2023-02-13T05:40:05.040Z,50.92
2023-02-13T05:42:32.172Z,57.00
2023-02-13T05:44:59.365Z,61.45
2023-02-13T05:47:26.510Z,71.93
2023-02-13T05:49:53.604Z,64.22
2023-02-13T05:52:20.837Z,61.30
2023-02-13T05:54:47.977Z,62.78
2023-02-13T05:57:15.415Z,59.22
2023-02-13T05:59:42.678Z,55.97
2023-02-13T06:02:09.922Z,65.05
2023-02-13T06:04:37.129Z,62.85
2023-02-13T06:07:04.362Z,52.30
2023-02-13T06:09:31.534Z,46.17
2023-02-13T06:11:58.710Z,60.72
2023-02-13T06:14:25.937Z,57.35
2023-02-13T06:16:53.210Z,45.78
2023-02-13T06:19:20.469Z,59.40
2023-02-13T06:21:47.627Z,60.72
2023-02-13T06:24:14.898Z,56.13
2023-02-13T06:26:42.062Z,57.50
2023-02-13T06:29:09.491Z,58.92
2023-02-13T06:31:36.795Z,60.15
2023-02-13T06:34:04.091Z,55.20
2023-02-13T06:36:31.358Z,56.40
2023-02-13T06:38:58.580Z,59.60
2023-02-13T06:41:25.926Z,51.35
2023-02-13T06:43:53.139Z,59.30
2023-02-13T06:46:20.274Z,65.07
2023-02-13T06:48:47.456Z,69.13
2023-02-13T06:51:14.653Z,76.05
2023-02-13T06:53:41.839Z,83.10
2023-02-13T06:56:10.655Z,88.85
2023-02-13T06:58:39.514Z,81.87
2023-02-13T07:01:06.869Z,82.53
2023-02-13T07:03:34.190Z,70.72
2023-02-13T07:06:01.611Z,76.07
2023-02-13T07:08:28.968Z,76.38
2023-02-13T07:10:56.503Z,76.45
2023-02-13T07:13:23.913Z,86.05
2023-02-13T07:15:51.198Z,84.35
2023-02-13T07:18:18.434Z,92.72
2023-02-13T07:20:45.582Z,86.45
2023-02-13T07:23:12.810Z,75.90
2023-02-13T07:25:39.926Z,65.53
2023-02-13T07:28:07.204Z,74.93
2023-02-13T07:30:35.309Z,65.43
2023-02-13T07:33:04.285Z,61.80
2023-02-13T07:35:32.462Z,65.55
2023-02-13T07:38:00.160Z,60.53
2023-02-13T07:40:28.036Z,70.32
2023-02-13T07:42:56.169Z,106.35
2023-02-13T07:45:23.431Z,75.63
2023-02-13T07:47:50.531Z,69.90
2023-02-13T07:50:18.049Z,61.53
2023-02-13T07:52:52.910Z,57.42
2023-02-13T07:55:20.036Z,56.05
2023-02-13T07:57:47.373Z,56.60
2023-02-13T08:00:15.517Z,61.15
2023-02-13T08:02:43.146Z,52.38
2023-02-13T08:05:10.358Z,61.65
2023-02-13T08:07:37.740Z,56.92
2023-02-13T08:10:31.656Z,70.28
2023-02-13T08:12:59.144Z,74.57
2023-02-13T08:15:26.830Z,67.80
2023-02-13T08:17:54.318Z,71.45
2023-02-13T08:20:21.879Z,71.72
2023-02-13T08:22:49.174Z,81.63
2023-02-13T08:25:16.870Z,80.03
2023-02-13T08:27:44.040Z,78.65
2023-02-13T08:30:12.500Z,72.88
2023-02-13T08:32:53.465Z,77.93
2023-02-13T08:35:26.142Z,84.38
2023-02-13T08:37:53.672Z,75.15
2023-02-13T08:40:23.441Z,81.70
2023-02-13T08:42:51.894Z,89.47
2023-02-13T08:45:19.121Z,88.05
2023-02-13T08:47:46.258Z,88.93
2023-02-13T08:50:13.379Z,89.55
2023-02-13T08:52:40.547Z,81.88
2023-02-13T08:55:08.198Z,90.80
2023-02-13T08:57:35.362Z,84.70
2023-02-13T09:00:03.650Z,75.22
2023-02-13T09:02:30.793Z,119.53
2023-02-13T09:04:58.144Z,92.20
2023-02-13T09:07:25.393Z,103.65
2023-02-13T09:09:52.569Z,90.85
2023-02-13T09:12:19.847Z,80.38
2023-02-13T09:14:47.570Z,82.93
2023-02-13T09:17:17.755Z,79.30
2023-02-13T09:19:46.479Z,73.38
2023-02-13T09:22:16.416Z,103.63
2023-02-13T09:24:43.634Z,80.70
2023-02-13T09:27:10.861Z,89.75
2023-02-13T09:29:37.997Z,83.07
2023-02-13T09:32:06.427Z,77.57
2023-02-13T09:34:33.755Z,66.72
2023-02-13T09:37:01.072Z,65.65
2023-02-13T09:39:28.540Z,50.13
2023-02-13T09:41:56.389Z,71.05
2023-02-13T09:44:44.717Z,45.90
2023-02-13T09:47:30.396Z,62.38
2023-02-13T09:50:26.740Z,62.30
2023-02-13T09:52:56.040Z,53.13
2023-02-13T09:55:52.226Z,54.88
2023-02-13T09:58:45.422Z,63.03
2023-02-13T10:01:31.319Z,47.33
2023-02-13T10:04:37.429Z,49.15
2023-02-13T10:07:30.459Z,42.97
2023-02-13T10:10:22.068Z,52.97
2023-02-13T10:12:56.948Z,48.40
2023-02-13T10:16:21.848Z,48.33
2023-02-13T16:34:30.050Z,76.72
2023-02-13T16:36:57.543Z,74.60
2023-02-13T16:39:32.422Z,79.28
2023-02-13T16:42:00.850Z,86.88
2023-02-13T16:44:32.848Z,88.55
2023-02-13T16:47:04.460Z,87.30
2023-02-13T16:49:36.324Z,83.40
2023-02-13T16:52:26.233Z,86.18
2023-02-13T16:55:02.616Z,129.07
2023-02-13T16:57:33.321Z,106.55
2023-02-13T17:00:08.827Z,88.97
2023-02-13T17:02:39.289Z,95.55
2023-02-13T17:05:09.412Z,77.53
2023-02-13T17:07:48.746Z,71.00
2023-02-13T17:10:33.299Z,77.57
2023-02-13T17:13:10.912Z,73.03
2023-02-13T17:15:43.750Z,132.95
2023-02-13T17:18:11.207Z,112.10
2023-02-13T17:20:42.430Z,104.55
2023-02-13T17:23:22.715Z,105.78
2023-02-13T17:25:53.118Z,103.05
2023-02-13T17:28:24.390Z,116.65
2023-02-13T17:30:55.870Z,126.20
2023-02-13T17:33:34.365Z,127.30
2023-02-13T17:36:02.241Z,102.40
2023-02-13T17:38:29.429Z,110.80
2023-02-13T17:40:57.014Z,126.90
2023-02-13T17:43:26.322Z,122.22
2023-02-13T17:45:53.707Z,122.72
2023-02-13T17:48:21.398Z,115.60
2023-02-13T17:50:50.078Z,107.03
2023-02-13T17:53:32.153Z,111.97
2023-02-13T17:55:59.575Z,125.45
2023-02-13T17:58:26.880Z,137.55
2023-02-13T18:00:54.214Z,136.63
2023-02-13T18:03:23.146Z,125.95
2023-02-13T18:05:50.953Z,103.85
2023-02-13T18:08:19.610Z,116.28
2023-02-13T18:10:47.243Z,101.40
2023-02-13T18:13:14.941Z,106.40
2023-02-13T18:15:44.930Z,113.72
2023-02-13T18:18:15.512Z,113.18
2023-02-13T18:20:43.866Z,99.75
2023-02-13T18:23:11.303Z,101.55
2023-02-13T18:25:38.835Z,106.40
2023-02-13T18:28:06.092Z,85.10
2023-02-13T18:30:33.433Z,82.95
2023-02-13T18:33:04.551Z,115.82
2023-02-13T18:35:32.882Z,100.93
2023-02-13T18:38:00.348Z,107.45
2023-02-13T18:40:27.651Z,102.35
2023-02-13T18:42:55.263Z,105.47
2023-02-13T18:45:22.723Z,125.13
2023-02-13T18:47:50.159Z,124.22
2023-02-13T18:50:17.545Z,134.32
2023-02-13T18:52:46.126Z,142.65
2023-02-13T18:55:13.286Z,161.20
2023-02-13T18:57:43.238Z,147.32
2023-02-13T19:00:13.725Z,140.07
2023-02-13T19:02:42.204Z,134.32
2023-02-13T19:05:09.448Z,123.00
2023-02-13T19:07:36.624Z,100.18
2023-02-13T19:10:04.233Z,112.32
2023-02-13T19:12:31.361Z,100.35
2023-02-13T19:14:58.528Z,94.55
2023-02-13T19:17:25.861Z,90.65
2023-02-13T19:19:54.442Z,112.40
2023-02-13T19:22:21.990Z,115.50
2023-02-13T19:24:49.179Z,120.95
2023-02-13T19:27:17.010Z,113.05
2023-02-13T19:29:44.654Z,107.07
2023-02-13T19:32:11.901Z,105.85
2023-02-13T19:34:39.283Z,103.18
2023-02-13T19:37:06.402Z,130.90
2023-02-13T19:39:33.628Z,116.75
2023-02-13T19:42:00.778Z,87.60
2023-02-13T19:44:28.038Z,78.70
2023-02-13T19:46:55.219Z,84.05
2023-02-13T19:49:22.327Z,97.47
2023-02-13T19:51:49.545Z,99.70
2023-02-13T19:54:16.683Z,92.47
2023-02-13T19:56:46.006Z,101.30
2023-02-13T19:59:13.436Z,100.15
2023-02-13T20:01:42.221Z,105.00
2023-02-13T20:04:10.333Z,95.13
2023-02-13T20:06:37.944Z,99.22
2023-02-13T20:09:10.824Z,91.53
2023-02-13T20:11:40.229Z,94.07
2023-02-13T20:14:10.949Z,93.80
2023-02-13T20:16:38.844Z,81.85
2023-02-13T20:19:09.002Z,83.43
2023-02-13T20:21:36.807Z,87.25
2023-02-13T20:24:04.846Z,81.07
2023-02-13T20:26:32.805Z,77.35
2023-02-13T20:29:00.800Z,81.30
2023-02-13T20:31:29.242Z,86.00
2023-02-13T20:33:58.043Z,72.25
2023-02-13T20:36:31.148Z,70.18
2023-02-13T20:39:01.724Z,71.25
2023-02-13T20:41:32.846Z,72.03
2023-02-13T20:44:04.126Z,91.22
2023-02-13T20:46:32.985Z,81.90
2023-02-13T20:49:00.334Z,68.30
2023-02-13T20:51:28.004Z,77.13
2023-02-13T20:53:56.136Z,78.57
2023-02-13T20:56:25.921Z,80.05
2023-02-13T20:58:58.089Z,91.20
2023-02-13T21:01:28.905Z,103.95
2023-02-13T21:03:56.846Z,92.47
2023-02-13T21:06:31.575Z,105.88
2023-02-13T21:08:59.683Z,113.13
2023-02-13T21:11:29.170Z,115.35
2023-02-13T21:14:02.006Z,119.03
2023-02-13T21:16:37.489Z,121.97
2023-02-13T21:19:10.734Z,128.73
2023-02-13T21:21:44.462Z,138.60
2023-02-13T21:24:20.022Z,120.22
2023-02-13T21:26:52.089Z,115.15
2023-02-13T21:29:24.151Z,128.35
2023-02-13T21:31:52.123Z,114.93
2023-02-13T21:34:21.155Z,124.78
2023-02-13T21:36:49.382Z,131.00
2023-02-13T21:39:17.105Z,125.22
2023-02-13T21:41:46.510Z,116.00
2023-02-13T21:44:16.201Z,117.88
2023-02-13T21:46:46.005Z,112.97
2023-02-13T21:49:18.008Z,125.50
2023-02-13T21:51:46.912Z,134.43
2023-02-13T21:54:14.539Z,111.70
2023-02-13T21:56:43.541Z,95.10
2023-02-13T21:59:15.526Z,97.57
2023-02-13T22:01:49.638Z,104.93
2023-02-13T22:04:17.675Z,104.80
2023-02-13T22:06:50.356Z,97.45
2023-02-13T22:09:20.591Z,87.75
2023-02-13T22:11:48.767Z,87.47
2023-02-13T22:14:17.582Z,85.88
2023-02-13T22:16:48.742Z,104.60
2023-02-13T22:19:17.109Z,93.22
2023-02-13T22:21:44.833Z,106.32
2023-02-13T22:24:12.444Z,108.35
2023-02-13T22:26:42.428Z,106.80
2023-02-13T22:29:12.289Z,122.57
2023-02-13T22:31:40.181Z,115.10
2023-02-13T22:34:07.580Z,113.25
2023-02-13T22:36:40.418Z,92.03
2023-02-13T22:39:10.024Z,96.38
2023-02-13T22:41:37.960Z,95.90
2023-02-13T22:44:05.487Z,79.50
2023-02-13T22:46:33.414Z,89.47
2023-02-13T22:49:00.998Z,94.97
2023-02-13T22:51:35.180Z,97.22
2023-02-13T22:54:03.558Z,85.45
2023-02-13T22:56:31.986Z,89.15
2023-02-13T22:58:59.885Z,101.43
2023-02-13T23:01:28.465Z,92.85
2023-02-13T23:03:56.295Z,101.85
2023-02-13T23:06:24.307Z,104.40
2023-02-13T23:08:52.973Z,100.20
2023-02-13T23:11:44.720Z,102.85
2023-02-13T23:14:12.776Z,104.18
2023-02-13T23:16:59.826Z,117.47
2023-02-13T23:19:29.211Z,112.10
2023-02-13T23:21:56.595Z,88.22
2023-02-13T23:24:23.924Z,96.88
2023-02-13T23:26:51.122Z,96.85
2023-02-13T23:29:18.264Z,93.43
2023-02-13T23:31:45.564Z,81.20
2023-02-13T23:34:12.916Z,99.45
2023-02-13T23:36:40.107Z,99.13
2023-02-13T23:39:07.263Z,95.60
2023-02-13T23:41:34.398Z,94.85
2023-02-13T23:44:01.564Z,95.05
2023-02-13T23:46:28.941Z,94.85
2023-02-13T23:48:57.066Z,94.55
2023-02-13T23:51:25.095Z,88.28
2023-02-13T23:53:55.411Z,94.13
2023-02-13T23:56:24.501Z,95.80
2023-02-13T23:58:52.507Z,103.90
